sensor_id;sensor_type;location;lat;lon;timestamp;pressure;altitude;pressure_sealevel;temperature;humidity
52625;BME280;38519;52.540;13.410;2023-05-10T00:01:41;100318.59;;;11.46;90.34
52625;BME280;38519;52.540;13.410;2023-05-10T00:04:06;100318.28;;;11.42;90.53
52625;BME280;38519;52.540;13.410;2023-05-10T00:06:31;100320.91;;;11.42;90.36
52625;BME280;38519;52.540;13.410;2023-05-10T00:08:57;100319.00;;;11.39;90.72
52625;BME280;38519;52.540;13.410;2023-05-10T00:11:22;100317.91;;;11.36;90.95
52625;BME280;38519;52.540;13.410;2023-05-10T00:13:47;100315.19;;;11.34;90.74
52625;BME280;38519;52.540;13.410;2023-05-10T00:16:13;100308.69;;;11.27;91.31
52625;BME280;38519;52.540;13.410;2023-05-10T00:18:38;100311.00;;;11.23;91.58
52625;BME280;38519;52.540;13.410;2023-05-10T00:21:04;100310.91;;;11.21;91.45
52625;BME280;38519;52.540;13.410;2023-05-10T00:23:29;100301.78;;;11.15;91.80
52625;BME280;38519;52.540;13.410;2023-05-10T00:25:54;100302.66;;;11.15;91.62
52625;BME280;38519;52.540;13.410;2023-05-10T00:28:20;100307.69;;;11.12;91.52
52625;BME280;38519;52.540;13.410;2023-05-10T00:30:45;100297.88;;;11.08;91.94
52625;BME280;38519;52.540;13.410;2023-05-10T00:33:10;100291.44;;;11.03;92.02
52625;BME280;38519;52.540;13.410;2023-05-10T00:35:36;100295.66;;;11.01;92.05
52625;BME280;38519;52.540;13.410;2023-05-10T00:38:03;100283.22;;;10.97;92.25
52625;BME280;38519;52.540;13.410;2023-05-10T00:40:28;100289.22;;;10.96;92.19
52625;BME280;38519;52.540;13.410;2023-05-10T00:42:53;100276.78;;;10.91;92.24
52625;BME280;38519;52.540;13.410;2023-05-10T00:45:19;100284.44;;;10.88;92.35
52625;BME280;38519;52.540;13.410;2023-05-10T00:47:44;100280.78;;;10.86;92.54
52625;BME280;38519;52.540;13.410;2023-05-10T00:50:09;100278.91;;;10.84;92.56
52625;BME280;38519;52.540;13.410;2023-05-10T00:52:35;100273.59;;;10.82;92.55
52625;BME280;38519;52.540;13.410;2023-05-10T00:55:00;100277.72;;;10.79;92.80
52625;BME280;38519;52.540;13.410;2023-05-10T00:57:26;100277.09;;;10.69;93.22
52625;BME280;38519;52.540;13.410;2023-05-10T00:59:51;100262.44;;;10.71;93.30
52625;BME280;38519;52.540;13.410;2023-05-10T01:02:17;100268.25;;;10.67;93.36
52625;BME280;38519;52.540;13.410;2023-05-10T01:04:42;100261.81;;;10.62;93.63
52625;BME280;38519;52.540;13.410;2023-05-10T01:07:08;100271.28;;;10.60;93.72
52625;BME280;38519;52.540;13.410;2023-05-10T01:09:33;100266.63;;;10.56;94.07
52625;BME280;38519;52.540;13.410;2023-05-10T01:11:58;100263.75;;;10.51;94.14
52625;BME280;38519;52.540;13.410;2023-05-10T01:14:24;100267.94;;;10.49;94.49
52625;BME280;38519;52.540;13.410;2023-05-10T01:16:50;100256.31;;;10.44;94.81
52625;BME280;38519;52.540;13.410;2023-05-10T01:19:24;100255.09;;;10.39;95.02
52625;BME280;38519;52.540;13.410;2023-05-10T01:21:57;100258.41;;;10.36;95.54
52625;BME280;38519;52.540;13.410;2023-05-10T01:29:33;100246.41;;;10.27;95.87
52625;BME280;38519;52.540;13.410;2023-05-10T01:34:35;100254.66;;;10.19;96.14
52625;BME280;38519;52.540;13.410;2023-05-10T01:37:11;100243.09;;;10.16;96.63
52625;BME280;38519;52.540;13.410;2023-05-10T01:39:49;100242.91;;;10.13;96.63
52625;BME280;38519;52.540;13.410;2023-05-10T01:42:26;100236.25;;;10.05;96.58
52625;BME280;38519;52.540;13.410;2023-05-10T01:44:58;100236.25;;;10.05;97.05
52625;BME280;38519;52.540;13.410;2023-05-10T01:47:28;100241.38;;;10.03;96.98
52625;BME280;38519;52.540;13.410;2023-05-10T01:49:56;100238.56;;;10.00;97.01
52625;BME280;38519;52.540;13.410;2023-05-10T01:52:25;100236.44;;;9.94;97.52
52625;BME280;38519;52.540;13.410;2023-05-10T01:54:58;100236.34;;;9.93;97.42
52625;BME280;38519;52.540;13.410;2023-05-10T01:57:25;100236.91;;;9.89;97.97
52625;BME280;38519;52.540;13.410;2023-05-10T01:59:51;100242.84;;;9.86;97.75
52625;BME280;38519;52.540;13.410;2023-05-10T02:02:18;100238.41;;;9.85;97.70
52625;BME280;38519;52.540;13.410;2023-05-10T02:04:45;100237.09;;;9.78;98.18
52625;BME280;38519;52.540;13.410;2023-05-10T02:07:11;100236.00;;;9.75;98.46
52625;BME280;38519;52.540;13.410;2023-05-10T02:09:37;100237.59;;;9.73;98.58
52625;BME280;38519;52.540;13.410;2023-05-10T02:12:03;100235.69;;;9.70;98.61
52625;BME280;38519;52.540;13.410;2023-05-10T02:14:32;100232.53;;;9.62;99.03
52625;BME280;38519;52.540;13.410;2023-05-10T02:16:59;100237.75;;;9.62;98.94
52625;BME280;38519;52.540;13.410;2023-05-10T02:19:25;100228.94;;;9.60;99.07
52625;BME280;38519;52.540;13.410;2023-05-10T02:21:51;100229.41;;;9.55;99.09
52625;BME280;38519;52.540;13.410;2023-05-10T02:24:16;100221.47;;;9.53;99.42
52625;BME280;38519;52.540;13.410;2023-05-10T02:26:42;100222.41;;;9.54;99.14
52625;BME280;38519;52.540;13.410;2023-05-10T02:29:09;100222.28;;;9.52;99.04
52625;BME280;38519;52.540;13.410;2023-05-10T02:31:34;100218.53;;;9.48;99.02
52625;BME280;38519;52.540;13.410;2023-05-10T02:34:00;100220.47;;;9.51;99.47
52625;BME280;38519;52.540;13.410;2023-05-10T02:36:26;100227.19;;;9.47;99.22
52625;BME280;38519;52.540;13.410;2023-05-10T02:38:52;100222.19;;;9.51;98.81
52625;BME280;38519;52.540;13.410;2023-05-10T02:41:18;100222.75;;;9.46;99.10
52625;BME280;38519;52.540;13.410;2023-05-10T02:43:44;100224.69;;;9.49;99.15
52625;BME280;38519;52.540;13.410;2023-05-10T02:46:10;100227.97;;;9.46;98.44
52625;BME280;38519;52.540;13.410;2023-05-10T02:48:36;100222.94;;;9.36;99.10
52625;BME280;38519;52.540;13.410;2023-05-10T02:51:03;100225.66;;;9.38;98.61
52625;BME280;38519;52.540;13.410;2023-05-10T02:53:30;100220.69;;;9.29;99.18
52625;BME280;38519;52.540;13.410;2023-05-10T02:55:57;100219.88;;;9.30;99.18
52625;BME280;38519;52.540;13.410;2023-05-10T02:58:23;100222.28;;;9.27;98.71
52625;BME280;38519;52.540;13.410;2023-05-10T03:00:49;100224.22;;;9.29;98.65
52625;BME280;38519;52.540;13.410;2023-05-10T03:03:14;100238.13;;;9.30;98.62
52625;BME280;38519;52.540;13.410;2023-05-10T03:05:39;100229.09;;;9.25;98.96
52625;BME280;38519;52.540;13.410;2023-05-10T03:08:05;100225.78;;;9.27;98.38
52625;BME280;38519;52.540;13.410;2023-05-10T03:10:31;100227.59;;;9.28;97.83
52625;BME280;38519;52.540;13.410;2023-05-10T03:13:03;100220.47;;;9.26;98.17
52625;BME280;38519;52.540;13.410;2023-05-10T03:15:37;100227.28;;;9.24;98.12
52625;BME280;38519;52.540;13.410;2023-05-10T03:18:11;100221.06;;;9.22;98.53
52625;BME280;38519;52.540;13.410;2023-05-10T03:20:47;100226.28;;;9.22;98.24
52625;BME280;38519;52.540;13.410;2023-05-10T03:25:39;100227.09;;;9.09;98.14
52625;BME280;38519;52.540;13.410;2023-05-10T03:28:05;100219.97;;;9.06;98.65
52625;BME280;38519;52.540;13.410;2023-05-10T03:30:31;100219.19;;;9.07;98.21
52625;BME280;38519;52.540;13.410;2023-05-10T03:32:57;100221.91;;;9.09;98.68
52625;BME280;38519;52.540;13.410;2023-05-10T03:35:22;100221.78;;;9.07;98.55
52625;BME280;38519;52.540;13.410;2023-05-10T03:37:48;100214.97;;;9.09;97.83
52625;BME280;38519;52.540;13.410;2023-05-10T03:40:13;100217.16;;;9.03;98.05
52625;BME280;38519;52.540;13.410;2023-05-10T03:42:39;100218.75;;;9.01;98.05
52625;BME280;38519;52.540;13.410;2023-05-10T03:45:05;100221.91;;;8.97;98.31
52625;BME280;38519;52.540;13.410;2023-05-10T03:47:30;100210.94;;;9.01;97.94
52625;BME280;38519;52.540;13.410;2023-05-10T03:49:56;100217.84;;;9.01;97.96
52625;BME280;38519;52.540;13.410;2023-05-10T03:52:22;100219.84;;;9.05;97.45
52625;BME280;38519;52.540;13.410;2023-05-10T03:54:47;100213.75;;;9.04;97.15
52625;BME280;38519;52.540;13.410;2023-05-10T03:57:12;100213.44;;;9.00;97.60
52625;BME280;38519;52.540;13.410;2023-05-10T03:59:37;100217.75;;;8.99;97.46
52625;BME280;38519;52.540;13.410;2023-05-10T04:02:02;100215.47;;;9.04;97.39
52625;BME280;38519;52.540;13.410;2023-05-10T04:04:28;100211.03;;;9.03;96.99
52625;BME280;38519;52.540;13.410;2023-05-10T04:06:53;100211.03;;;9.03;96.86
52625;BME280;38519;52.540;13.410;2023-05-10T04:09:18;100214.88;;;9.08;96.42
52625;BME280;38519;52.540;13.410;2023-05-10T04:11:43;100210.56;;;9.08;96.11
52625;BME280;38519;52.540;13.410;2023-05-10T04:14:09;100207.16;;;9.09;95.84
52625;BME280;38519;52.540;13.410;2023-05-10T04:16:34;100209.00;;;9.10;95.74
52625;BME280;38519;52.540;13.410;2023-05-10T04:18:59;100210.09;;;9.14;95.75
52625;BME280;38519;52.540;13.410;2023-05-10T04:21:24;100205.66;;;9.13;95.33
52625;BME280;38519;52.540;13.410;2023-05-10T04:23:50;100205.66;;;9.13;95.04
52625;BME280;38519;52.540;13.410;2023-05-10T04:26:15;100200.69;;;9.16;95.43
52625;BME280;38519;52.540;13.410;2023-05-10T04:28:40;100204.09;;;9.15;95.06
52625;BME280;38519;52.540;13.410;2023-05-10T04:31:07;100195.78;;;9.21;94.66
52625;BME280;38519;52.540;13.410;2023-05-10T04:33:32;100202.94;;;9.23;94.47
52625;BME280;38519;52.540;13.410;2023-05-10T04:35:58;100199.50;;;9.24;94.08
52625;BME280;38519;52.540;13.410;2023-05-10T04:38:23;100203.25;;;9.28;94.29
52625;BME280;38519;52.540;13.410;2023-05-10T04:40:48;100200.75;;;9.29;93.65
52625;BME280;38519;52.540;13.410;2023-05-10T04:43:13;100197.75;;;9.37;93.37
52625;BME280;38519;52.540;13.410;2023-05-10T04:45:39;100192.97;;;9.43;92.49
52625;BME280;38519;52.540;13.410;2023-05-10T04:48:04;100192.41;;;9.47;92.50
52625;BME280;38519;52.540;13.410;2023-05-10T04:50:30;100187.28;;;9.48;92.38
52625;BME280;38519;52.540;13.410;2023-05-10T04:52:55;100197.34;;;9.56;92.30
52625;BME280;38519;52.540;13.410;2023-05-10T04:55:20;100192.66;;;9.63;91.83
52625;BME280;38519;52.540;13.410;2023-05-10T04:57:46;100179.22;;;9.71;91.53
52625;BME280;38519;52.540;13.410;2023-05-10T05:00:11;100186.47;;;9.75;90.95
52625;BME280;38519;52.540;13.410;2023-05-10T05:02:37;100188.88;;;9.85;90.03
52625;BME280;38519;52.540;13.410;2023-05-10T05:05:02;100193.63;;;9.91;89.40
52625;BME280;38519;52.540;13.410;2023-05-10T05:07:28;100187.88;;;9.96;89.67
52625;BME280;38519;52.540;13.410;2023-05-10T05:09:55;100191.00;;;10.04;89.20
52625;BME280;38519;52.540;13.410;2023-05-10T05:12:20;100190.53;;;10.10;88.96
52625;BME280;38519;52.540;13.410;2023-05-10T05:14:45;100184.13;;;10.18;88.03
52625;BME280;38519;52.540;13.410;2023-05-10T05:17:11;100177.78;;;10.28;87.58
52625;BME280;38519;52.540;13.410;2023-05-10T05:19:36;100186.25;;;10.37;87.24
52625;BME280;38519;52.540;13.410;2023-05-10T05:22:01;100180.50;;;10.43;87.02
52625;BME280;38519;52.540;13.410;2023-05-10T05:24:27;100183.44;;;10.47;86.58
52625;BME280;38519;52.540;13.410;2023-05-10T05:26:52;100179.50;;;10.54;86.30
52625;BME280;38519;52.540;13.410;2023-05-10T05:29:17;100185.41;;;10.65;85.89
52625;BME280;38519;52.540;13.410;2023-05-10T05:31:42;100185.91;;;10.72;85.49
52625;BME280;38519;52.540;13.410;2023-05-10T05:34:07;100182.56;;;10.75;85.91
52625;BME280;38519;52.540;13.410;2023-05-10T05:36:35;100181.09;;;10.79;85.14
52625;BME280;38519;52.540;13.410;2023-05-10T05:39:01;100180.53;;;10.84;85.26
52625;BME280;38519;52.540;13.410;2023-05-10T05:41:26;100175.81;;;10.92;84.79
52625;BME280;38519;52.540;13.410;2023-05-10T05:43:51;100179.00;;;11.01;84.34
52625;BME280;38519;52.540;13.410;2023-05-10T05:46:16;100171.03;;;11.13;83.98
52625;BME280;38519;52.540;13.410;2023-05-10T05:48:41;100177.63;;;11.21;83.71
52625;BME280;38519;52.540;13.410;2023-05-10T05:51:07;100180.41;;;11.24;83.50
52625;BME280;38519;52.540;13.410;2023-05-10T05:53:32;100171.53;;;11.36;82.55
52625;BME280;38519;52.540;13.410;2023-05-10T05:55:58;100173.88;;;11.46;82.64
52625;BME280;38519;52.540;13.410;2023-05-10T05:58:23;100174.25;;;11.52;81.76
52625;BME280;38519;52.540;13.410;2023-05-10T06:00:49;100166.78;;;11.58;82.34
52625;BME280;38519;52.540;13.410;2023-05-10T06:03:14;100171.84;;;11.70;81.09
52625;BME280;38519;52.540;13.410;2023-05-10T06:05:40;100170.50;;;11.77;81.35
52625;BME280;38519;52.540;13.410;2023-05-10T06:08:05;100174.56;;;11.87;80.33
52625;BME280;38519;52.540;13.410;2023-05-10T06:10:30;100170.97;;;11.99;79.90
52625;BME280;38519;52.540;13.410;2023-05-10T06:12:56;100176.59;;;12.06;79.36
52625;BME280;38519;52.540;13.410;2023-05-10T06:15:21;100179.88;;;12.18;79.42
52625;BME280;38519;52.540;13.410;2023-05-10T06:17:46;100182.06;;;12.25;78.53
52625;BME280;38519;52.540;13.410;2023-05-10T06:20:14;100180.69;;;12.32;78.96
52625;BME280;38519;52.540;13.410;2023-05-10T06:22:39;100172.97;;;12.50;79.07
52625;BME280;38519;52.540;13.410;2023-05-10T06:25:05;100177.09;;;12.61;77.67
52625;BME280;38519;52.540;13.410;2023-05-10T06:27:30;100178.25;;;12.66;76.75
52625;BME280;38519;52.540;13.410;2023-05-10T06:29:55;100169.84;;;12.72;77.26
52625;BME280;38519;52.540;13.410;2023-05-10T06:32:20;100175.25;;;12.75;76.60
52625;BME280;38519;52.540;13.410;2023-05-10T06:34:46;100184.44;;;12.83;76.65
52625;BME280;38519;52.540;13.410;2023-05-10T06:37:11;100180.41;;;12.90;76.47
52625;BME280;38519;52.540;13.410;2023-05-10T06:39:36;100187.06;;;13.00;76.24
52625;BME280;38519;52.540;13.410;2023-05-10T06:42:02;100176.84;;;13.04;75.72
52625;BME280;38519;52.540;13.410;2023-05-10T06:44:27;100182.88;;;13.03;75.45
52625;BME280;38519;52.540;13.410;2023-05-10T06:46:52;100181.28;;;13.05;75.73
52625;BME280;38519;52.540;13.410;2023-05-10T06:49:20;100187.56;;;13.09;75.82
52625;BME280;38519;52.540;13.410;2023-05-10T06:51:46;100177.84;;;13.23;74.98
52625;BME280;38519;52.540;13.410;2023-05-10T06:54:11;100178.31;;;13.32;75.08
52625;BME280;38519;52.540;13.410;2023-05-10T06:56:36;100173.34;;;13.37;74.60
52625;BME280;38519;52.540;13.410;2023-05-10T06:59:03;100173.44;;;13.38;74.89
52625;BME280;38519;52.540;13.410;2023-05-10T07:01:28;100169.31;;;13.43;74.86
52625;BME280;38519;52.540;13.410;2023-05-10T07:03:53;100181.16;;;13.52;74.82
52625;BME280;38519;52.540;13.410;2023-05-10T07:06:18;100180.47;;;13.56;74.65
52625;BME280;38519;52.540;13.410;2023-05-10T07:08:44;100178.97;;;13.61;74.08
52625;BME280;38519;52.540;13.410;2023-05-10T07:11:10;100186.19;;;13.65;74.07
52625;BME280;38519;52.540;13.410;2023-05-10T07:13:35;100172.16;;;13.81;73.15
52625;BME280;38519;52.540;13.410;2023-05-10T07:16:01;100182.19;;;13.90;73.28
52625;BME280;38519;52.540;13.410;2023-05-10T07:18:27;100170.22;;;13.95;72.98
52625;BME280;38519;52.540;13.410;2023-05-10T07:20:52;100172.16;;;13.99;73.02
52625;BME280;38519;52.540;13.410;2023-05-10T07:23:17;100161.25;;;14.08;72.37
52625;BME280;38519;52.540;13.410;2023-05-10T07:25:49;100159.91;;;14.16;72.42
52625;BME280;38519;52.540;13.410;2023-05-10T07:28:15;100164.84;;;14.28;71.84
52625;BME280;38519;52.540;13.410;2023-05-10T07:30:40;100173.91;;;14.34;71.42
52625;BME280;38519;52.540;13.410;2023-05-10T07:33:06;100163.72;;;14.41;71.31
52625;BME280;38519;52.540;13.410;2023-05-10T07:35:32;100173.84;;;14.33;71.45
52625;BME280;38519;52.540;13.410;2023-05-10T07:37:57;100170.72;;;14.40;70.83
52625;BME280;38519;52.540;13.410;2023-05-10T07:40:22;100174.44;;;14.45;71.26
52625;BME280;38519;52.540;13.410;2023-05-10T07:42:48;100170.69;;;14.58;70.79
52625;BME280;38519;52.540;13.410;2023-05-10T07:45:13;100171.56;;;14.58;70.18
52625;BME280;38519;52.540;13.410;2023-05-10T07:47:38;100174.84;;;14.71;70.47
52625;BME280;38519;52.540;13.410;2023-05-10T07:50:04;100164.84;;;14.64;70.14
52625;BME280;38519;52.540;13.410;2023-05-10T07:52:29;100161.13;;;14.78;70.29
52625;BME280;38519;52.540;13.410;2023-05-10T07:54:54;100166.16;;;14.91;69.55
52625;BME280;38519;52.540;13.410;2023-05-10T07:57:21;100159.75;;;15.04;68.98
52625;BME280;38519;52.540;13.410;2023-05-10T07:59:47;100160.78;;;15.08;69.08
52625;BME280;38519;52.540;13.410;2023-05-10T08:02:12;100162.09;;;15.18;69.08
52625;BME280;38519;52.540;13.410;2023-05-10T08:04:37;100163.19;;;15.23;69.02
52625;BME280;38519;52.540;13.410;2023-05-10T08:07:02;100168.50;;;15.44;68.45
52625;BME280;38519;52.540;13.410;2023-05-10T08:09:28;100162.97;;;15.57;67.91
52625;BME280;38519;52.540;13.410;2023-05-10T08:11:53;100164.38;;;15.49;67.91
52625;BME280;38519;52.540;13.410;2023-05-10T08:14:18;100168.78;;;15.50;67.81
52625;BME280;38519;52.540;13.410;2023-05-10T08:16:43;100175.63;;;15.66;66.71
52625;BME280;38519;52.540;13.410;2023-05-10T08:19:09;100167.03;;;15.70;66.95
52625;BME280;38519;52.540;13.410;2023-05-10T08:21:34;100168.44;;;15.81;66.62
52625;BME280;38519;52.540;13.410;2023-05-10T08:23:59;100163.03;;;15.78;66.32
52625;BME280;38519;52.540;13.410;2023-05-10T08:26:24;100167.78;;;15.87;66.42
52625;BME280;38519;52.540;13.410;2023-05-10T08:28:50;100165.03;;;15.84;66.94
52625;BME280;38519;52.540;13.410;2023-05-10T08:31:16;100164.13;;;16.05;65.87
52625;BME280;38519;52.540;13.410;2023-05-10T08:33:41;100168.19;;;16.17;65.44
52625;BME280;38519;52.540;13.410;2023-05-10T08:36:06;100169.72;;;16.33;65.24
52625;BME280;38519;52.540;13.410;2023-05-10T08:38:32;100161.63;;;16.29;64.88
52625;BME280;38519;52.540;13.410;2023-05-10T08:40:57;100170.66;;;16.35;64.96
52625;BME280;38519;52.540;13.410;2023-05-10T08:43:26;100167.84;;;16.52;64.05
52625;BME280;38519;52.540;13.410;2023-05-10T08:45:53;100169.56;;;16.51;63.72
52625;BME280;38519;52.540;13.410;2023-05-10T08:48:18;100175.13;;;16.59;64.22
52625;BME280;38519;52.540;13.410;2023-05-10T08:50:44;100174.31;;;16.60;63.87
52625;BME280;38519;52.540;13.410;2023-05-10T08:53:10;100177.78;;;16.59;63.17
52625;BME280;38519;52.540;13.410;2023-05-10T08:55:36;100176.09;;;16.61;63.56
52625;BME280;38519;52.540;13.410;2023-05-10T08:58:03;100174.06;;;16.77;63.53
52625;BME280;38519;52.540;13.410;2023-05-10T09:00:30;100174.78;;;16.93;63.13
52625;BME280;38519;52.540;13.410;2023-05-10T09:02:55;100166.00;;;16.95;62.79
52625;BME280;38519;52.540;13.410;2023-05-10T09:05:21;100176.03;;;17.03;62.26
52625;BME280;38519;52.540;13.410;2023-05-10T09:07:47;100177.69;;;17.24;62.25
52625;BME280;38519;52.540;13.410;2023-05-10T09:10:12;100174.75;;;17.16;61.97
52625;BME280;38519;52.540;13.410;2023-05-10T09:12:38;100183.53;;;17.17;61.98
52625;BME280;38519;52.540;13.410;2023-05-10T09:15:03;100173.75;;;17.37;61.46
52625;BME280;38519;52.540;13.410;2023-05-10T09:17:29;100177.50;;;17.19;61.56
52625;BME280;38519;52.540;13.410;2023-05-10T09:20:02;100175.41;;;17.35;61.84
52625;BME280;38519;52.540;13.410;2023-05-10T09:22:28;100180.22;;;17.45;61.60
52625;BME280;38519;52.540;13.410;2023-05-10T09:25:07;100181.53;;;17.58;61.29
52625;BME280;38519;52.540;13.410;2023-05-10T09:27:33;100184.06;;;17.55;61.53
52625;BME280;38519;52.540;13.410;2023-05-10T09:29:58;100177.25;;;17.61;60.34
52625;BME280;38519;52.540;13.410;2023-05-10T09:32:37;100182.88;;;17.95;60.76
52625;BME280;38519;52.540;13.410;2023-05-10T09:35:06;100182.72;;;17.90;59.88
52625;BME280;38519;52.540;13.410;2023-05-10T09:37:31;100183.22;;;18.06;59.58
52625;BME280;38519;52.540;13.410;2023-05-10T09:39:56;100195.25;;;18.23;59.18
52625;BME280;38519;52.540;13.410;2023-05-10T09:42:22;100189.44;;;18.33;58.96
52625;BME280;38519;52.540;13.410;2023-05-10T09:44:48;100183.44;;;18.39;59.27
52625;BME280;38519;52.540;13.410;2023-05-10T09:47:16;100188.63;;;18.36;58.91
52625;BME280;38519;52.540;13.410;2023-05-10T09:49:50;100187.81;;;18.37;59.16
52625;BME280;38519;52.540;13.410;2023-05-10T09:52:16;100190.38;;;18.35;59.06
52625;BME280;38519;52.540;13.410;2023-05-10T09:54:44;100182.25;;;18.29;58.98
52625;BME280;38519;52.540;13.410;2023-05-10T09:57:18;100190.66;;;18.43;59.00
52625;BME280;38519;52.540;13.410;2023-05-10T09:59:43;100190.66;;;18.43;58.73
52625;BME280;38519;52.540;13.410;2023-05-10T10:02:09;100191.63;;;18.47;58.81
52625;BME280;38519;52.540;13.410;2023-05-10T10:04:38;100191.47;;;18.69;58.36
52625;BME280;38519;52.540;13.410;2023-05-10T10:07:04;100188.72;;;18.66;58.16
52625;BME280;38519;52.540;13.410;2023-05-10T10:09:29;100185.28;;;18.69;58.08
52625;BME280;38519;52.540;13.410;2023-05-10T10:11:54;100187.00;;;18.96;57.67
52625;BME280;38519;52.540;13.410;2023-05-10T10:14:22;100189.34;;;18.85;58.01
52625;BME280;38519;52.540;13.410;2023-05-10T10:16:49;100181.13;;;19.04;57.07
52625;BME280;38519;52.540;13.410;2023-05-10T10:19:15;100181.06;;;19.03;57.24
52625;BME280;38519;52.540;13.410;2023-05-10T10:21:40;100189.06;;;19.35;57.06
52625;BME280;38519;52.540;13.410;2023-05-10T10:24:05;100177.69;;;19.39;56.17
52625;BME280;38519;52.540;13.410;2023-05-10T10:26:33;100188.38;;;19.42;56.50
52625;BME280;38519;52.540;13.410;2023-05-10T10:31:38;100183.09;;;19.42;56.44
52625;BME280;38519;52.540;13.410;2023-05-10T10:34:38;100176.72;;;19.35;57.11
52625;BME280;38519;52.540;13.410;2023-05-10T10:36:57;100172.31;;;19.36;56.93
52625;BME280;38519;52.540;13.410;2023-05-10T10:39:23;100173.53;;;19.47;55.98
52625;BME280;38519;52.540;13.410;2023-05-10T10:41:55;100178.44;;;19.65;55.76
52625;BME280;38519;52.540;13.410;2023-05-10T10:44:24;100170.00;;;19.78;55.64
52625;BME280;38519;52.540;13.410;2023-05-10T10:47:10;100175.84;;;19.98;54.64
52625;BME280;38519;52.540;13.410;2023-05-10T10:49:48;100181.28;;;20.05;54.95
52625;BME280;38519;52.540;13.410;2023-05-10T10:52:15;100175.28;;;20.12;54.87
52625;BME280;38519;52.540;13.410;2023-05-10T10:54:41;100176.66;;;19.96;55.12
52625;BME280;38519;52.540;13.410;2023-05-10T10:57:13;100179.34;;;19.97;55.19
52625;BME280;38519;52.540;13.410;2023-05-10T10:59:42;100189.28;;;20.06;54.87
52625;BME280;38519;52.540;13.410;2023-05-10T11:02:32;100171.28;;;20.28;54.47
52625;BME280;38519;52.540;13.410;2023-05-10T11:04:57;100173.66;;;20.17;54.83
52625;BME280;38519;52.540;13.410;2023-05-10T11:07:22;100172.69;;;20.50;54.41
52625;BME280;38519;52.540;13.410;2023-05-10T11:09:48;100169.91;;;20.44;54.12
52625;BME280;38519;52.540;13.410;2023-05-10T11:12:13;100178.41;;;20.67;54.22
52625;BME280;38519;52.540;13.410;2023-05-10T11:14:39;100178.53;;;20.71;53.85
52625;BME280;38519;52.540;13.410;2023-05-10T11:20:07;100178.78;;;20.46;54.38
52625;BME280;38519;52.540;13.410;2023-05-10T11:22:52;100181.78;;;20.99;53.51
52625;BME280;38519;52.540;13.410;2023-05-10T11:25:18;100170.09;;;20.89;53.29
52625;BME280;38519;52.540;13.410;2023-05-10T11:27:44;100178.09;;;21.32;52.03
52625;BME280;38519;52.540;13.410;2023-05-10T11:30:10;100176.88;;;21.16;52.73
52625;BME280;38519;52.540;13.410;2023-05-10T11:32:39;100176.34;;;20.91;53.23
52625;BME280;38519;52.540;13.410;2023-05-10T11:35:08;100176.13;;;20.82;53.72
52625;BME280;38519;52.540;13.410;2023-05-10T11:37:34;100170.97;;;20.88;53.75
52625;BME280;38519;52.540;13.410;2023-05-10T11:39:59;100158.53;;;21.28;53.01
52625;BME280;38519;52.540;13.410;2023-05-10T11:42:25;100161.31;;;21.36;52.89
52625;BME280;38519;52.540;13.410;2023-05-10T11:44:50;100166.22;;;21.59;51.61
52625;BME280;38519;52.540;13.410;2023-05-10T11:47:15;100167.06;;;21.14;53.27
52625;BME280;38519;52.540;13.410;2023-05-10T11:49:44;100168.88;;;21.59;52.78
52625;BME280;38519;52.540;13.410;2023-05-10T11:52:09;100162.41;;;21.44;52.44
52625;BME280;38519;52.540;13.410;2023-05-10T11:54:36;100157.47;;;21.63;52.41
52625;BME280;38519;52.540;13.410;2023-05-10T11:57:01;100163.19;;;21.86;52.02
52625;BME280;38519;52.540;13.410;2023-05-10T11:59:27;100169.22;;;22.28;50.82
52625;BME280;38519;52.540;13.410;2023-05-10T12:01:52;100176.91;;;22.09;50.33
52625;BME280;38519;52.540;13.410;2023-05-10T12:04:18;100174.25;;;22.09;51.07
52625;BME280;38519;52.540;13.410;2023-05-10T12:06:44;100169.31;;;21.80;51.43
52625;BME280;38519;52.540;13.410;2023-05-10T12:09:10;100169.19;;;21.74;52.27
52625;BME280;38519;52.540;13.410;2023-05-10T12:11:39;100165.53;;;21.68;52.81
52625;BME280;38519;52.540;13.410;2023-05-10T12:14:05;100171.75;;;21.70;52.03
52625;BME280;38519;52.540;13.410;2023-05-10T12:16:30;100174.69;;;21.83;51.22
52625;BME280;38519;52.540;13.410;2023-05-10T12:18:57;100163.78;;;21.70;51.71
52625;BME280;38519;52.540;13.410;2023-05-10T12:21:22;100173.41;;;22.10;50.51
52625;BME280;38519;52.540;13.410;2023-05-10T12:23:49;100182.63;;;22.31;50.39
52625;BME280;38519;52.540;13.410;2023-05-10T12:26:15;100174.13;;;22.03;50.94
52625;BME280;38519;52.540;13.410;2023-05-10T12:28:40;100172.75;;;21.76;51.51
52625;BME280;38519;52.540;13.410;2023-05-10T12:31:06;100179.94;;;22.29;50.72
52625;BME280;38519;52.540;13.410;2023-05-10T12:33:41;100183.78;;;22.48;49.87
52625;BME280;38519;52.540;13.410;2023-05-10T12:36:08;100181.69;;;22.85;49.00
52625;BME280;38519;52.540;13.410;2023-05-10T12:38:34;100186.78;;;23.33;47.30
52625;BME280;38519;52.540;13.410;2023-05-10T12:41:01;100191.41;;;24.29;45.12
52625;BME280;38519;52.540;13.410;2023-05-10T12:43:26;100195.81;;;24.28;45.58
52625;BME280;38519;52.540;13.410;2023-05-10T12:45:52;100190.22;;;24.00;46.47
52625;BME280;38519;52.540;13.410;2023-05-10T12:48:17;100196.75;;;24.36;45.82
52625;BME280;38519;52.540;13.410;2023-05-10T12:50:42;100182.88;;;23.78;47.38
52625;BME280;38519;52.540;13.410;2023-05-10T12:53:07;100190.22;;;25.14;44.59
52625;BME280;38519;52.540;13.410;2023-05-10T12:55:33;100194.66;;;25.12;45.04